createdAt,value
2022-08-05T00:00:50.073Z,2.93
2022-08-05T00:03:17.558Z,2.90
2022-08-05T00:06:05.020Z,3.37
2022-08-05T00:08:34.498Z,2.80
2022-08-05T00:11:04.744Z,3.77
2022-08-05T00:13:47.060Z,3.50
2022-08-05T00:16:20.150Z,3.80
2022-08-05T00:19:04.681Z,3.10
2022-08-05T00:21:35.940Z,3.30
2022-08-05T00:24:10.409Z,3.23
2022-08-05T00:26:38.464Z,3.03
2022-08-05T00:29:05.101Z,3.63
2022-08-05T00:31:54.494Z,3.00
2022-08-05T00:34:57.051Z,3.90
2022-08-05T00:37:11.419Z,2.83
2022-08-05T00:39:57.180Z,3.57
2022-08-05T00:42:32.656Z,3.60
2022-08-05T00:44:59.811Z,3.17
2022-08-05T00:47:31.527Z,2.80
2022-08-05T00:50:13.578Z,3.20
2022-08-05T00:52:40.286Z,3.80
2022-08-05T00:55:07.131Z,3.20
2022-08-05T00:57:55.658Z,2.60
2022-08-05T01:00:20.315Z,2.30
2022-08-05T01:02:50.190Z,2.70
2022-08-05T01:05:16.885Z,2.93
2022-08-05T01:08:40.068Z,3.10
2022-08-05T01:10:51.549Z,3.43
2022-08-05T01:13:58.585Z,3.70
2022-08-05T01:16:49.365Z,3.70
2022-08-05T01:19:30.131Z,3.63
2022-08-05T01:22:28.041Z,4.00
2022-08-05T01:25:02.009Z,4.50
2022-08-05T01:27:50.678Z,3.63
2022-08-05T01:30:34.556Z,3.80
2022-08-05T01:33:08.358Z,3.90
2022-08-05T01:35:51.131Z,3.83
2022-08-05T01:38:27.218Z,4.40
2022-08-05T01:40:58.653Z,3.97
2022-08-05T01:43:27.530Z,3.90
2022-08-05T01:45:56.423Z,3.63
2022-08-05T01:48:27.764Z,4.10
2022-08-05T01:50:56.617Z,4.00
2022-08-05T01:53:54.604Z,4.07
2022-08-05T01:58:29.945Z,4.10
2022-08-05T01:59:09.602Z,4.30
2022-08-05T02:01:37.989Z,4.43
2022-08-05T02:04:08.873Z,4.70
2022-08-05T02:06:39.080Z,4.00
2022-08-05T02:09:07.206Z,4.87
2022-08-05T02:12:06.504Z,4.60
2022-08-05T02:15:26.210Z,3.90
2022-08-05T02:18:31.263Z,3.73
2022-08-05T02:21:17.129Z,5.47
2022-08-05T02:23:48.504Z,3.70
2022-08-05T02:26:21.967Z,5.40
2022-08-05T02:28:49.802Z,5.47
2022-08-05T02:31:26.309Z,3.77
2022-08-05T02:34:02.409Z,4.60
2022-08-05T02:36:32.207Z,4.77
2022-08-05T02:39:01.483Z,4.97
2022-08-05T02:41:42.844Z,3.93
2022-08-05T02:44:18.017Z,4.77
2022-08-05T02:46:53.738Z,4.57
2022-08-05T02:49:36.162Z,4.13
2022-08-05T02:52:11.546Z,5.30
2022-08-05T02:54:42.386Z,5.07
2022-08-05T02:58:19.860Z,5.30
2022-08-05T03:00:06.467Z,5.73
2022-08-05T03:02:37.990Z,5.93
2022-08-05T03:05:07.460Z,6.40
2022-08-05T03:08:00.526Z,6.03
2022-08-05T03:10:24.891Z,6.60
2022-08-05T03:12:53.901Z,7.57
2022-08-05T03:15:23.481Z,7.80
2022-08-05T03:17:55.866Z,8.43
2022-08-05T03:20:24.436Z,6.97
2022-08-05T03:22:52.588Z,7.53
2022-08-05T03:26:02.600Z,8.83
2022-08-05T03:28:08.825Z,8.23
2022-08-05T03:30:36.583Z,8.00
2022-08-05T03:33:05.734Z,8.13
2022-08-05T03:35:33.868Z,8.47
2022-08-05T03:38:11.697Z,8.20
2022-08-05T03:40:48.676Z,7.40
2022-08-05T03:44:08.401Z,8.07
2022-08-05T03:46:04.558Z,7.20
2022-08-05T03:48:35.645Z,7.47
2022-08-05T03:52:38.508Z,7.90
2022-08-05T03:55:53.094Z,7.13
2022-08-05T03:57:16.461Z,6.00
2022-08-05T03:59:54.809Z,6.70
2022-08-05T04:02:37.911Z,5.00
2022-08-05T04:05:13.007Z,3.67
2022-08-05T04:07:51.438Z,3.80
2022-08-05T04:10:24.612Z,7.40
2022-08-05T04:12:55.449Z,7.27
2022-08-05T04:15:26.393Z,5.97
2022-08-05T04:18:01.273Z,6.40
2022-08-05T04:20:27.859Z,6.67
2022-08-05T04:22:54.511Z,7.40
2022-08-05T04:25:24.180Z,5.80
2022-08-05T04:28:11.250Z,6.07
2022-08-05T04:30:39.595Z,4.47
2022-08-05T04:33:06.334Z,7.57
2022-08-05T04:36:10.846Z,9.13
2022-08-05T04:38:21.106Z,10.17
2022-08-05T04:40:50.692Z,8.87
2022-08-05T04:43:17.646Z,9.33
2022-08-05T04:45:55.106Z,9.60
2022-08-05T04:48:27.320Z,10.53
2022-08-05T04:51:03.840Z,10.20
2022-08-05T04:53:38.921Z,10.53
2022-08-05T04:56:33.123Z,10.40
2022-08-05T04:58:54.252Z,7.40
2022-08-05T05:01:33.459Z,10.17
2022-08-05T05:04:00.698Z,7.93
2022-08-05T05:06:39.890Z,8.10
2022-08-05T05:09:14.277Z,10.60
2022-08-05T05:11:55.503Z,10.70
2022-08-05T05:14:31.741Z,10.20
2022-08-05T05:17:00.341Z,11.13
2022-08-05T05:19:36.358Z,10.60
2022-08-05T05:22:24.533Z,11.20
2022-08-05T05:24:58.341Z,10.93
2022-08-05T05:27:44.348Z,7.10
2022-08-05T05:30:28.808Z,10.53
2022-08-05T05:32:57.071Z,6.40
2022-08-05T05:35:29.190Z,6.27
2022-08-05T05:38:03.426Z,9.87
2022-08-05T05:40:32.813Z,10.00
2022-08-05T05:43:02.178Z,10.10
2022-08-05T05:45:29.195Z,10.13
2022-08-05T05:48:06.761Z,8.47
2022-08-05T05:50:44.025Z,8.60
2022-08-05T05:53:22.446Z,8.40
2022-08-05T05:55:52.077Z,10.30
2022-08-05T05:58:31.389Z,9.83
2022-08-05T06:01:02.474Z,10.23
2022-08-05T06:04:00.816Z,8.67
2022-08-05T06:06:28.132Z,8.50
2022-08-05T06:08:58.534Z,9.80
2022-08-05T06:11:25.318Z,6.60
2022-08-05T06:13:53.977Z,8.80
2022-08-05T06:16:29.497Z,8.80
2022-08-05T06:19:01.904Z,8.40
2022-08-05T06:21:36.548Z,10.20
2022-08-05T06:24:11.584Z,8.07
2022-08-05T06:26:39.948Z,10.03
2022-08-05T06:29:43.048Z,7.13
2022-08-05T06:32:05.641Z,5.50
2022-08-05T06:34:48.388Z,8.60
2022-08-05T06:37:52.291Z,6.87
2022-08-05T06:40:07.423Z,8.20
2022-08-05T06:42:34.027Z,9.60
2022-08-05T06:45:00.714Z,7.60
2022-08-05T06:48:46.907Z,6.70
2022-08-05T06:50:19.003Z,8.70
2022-08-05T06:52:58.736Z,6.30
2022-08-05T06:55:30.336Z,8.07
2022-08-05T06:58:20.342Z,5.80
2022-08-05T07:00:50.433Z,7.53
2022-08-05T07:03:17.366Z,8.07
2022-08-05T07:05:44.762Z,8.43
2022-08-05T07:08:15.329Z,8.63
2022-08-05T07:10:52.289Z,8.27
2022-08-05T07:13:58.068Z,7.73
2022-08-05T07:17:58.749Z,3.50
2022-08-05T07:22:28.976Z,7.70
2022-08-05T07:25:22.130Z,7.90
2022-08-05T07:28:00.100Z,3.53
2022-08-05T07:30:38.270Z,7.10
2022-08-05T07:33:16.242Z,5.80
2022-08-05T07:36:04.410Z,6.93
2022-08-05T07:38:34.989Z,6.90
2022-08-05T07:42:07.480Z,6.30
2022-08-05T07:43:59.941Z,6.40
2022-08-05T07:46:29.011Z,6.83
2022-08-05T07:49:04.339Z,6.40
2022-08-05T07:51:40.578Z,8.30
2022-08-05T07:54:15.117Z,6.80
2022-08-05T07:57:02.103Z,6.97
2022-08-05T07:59:38.380Z,3.70
2022-08-05T08:02:16.660Z,3.37
2022-08-05T08:04:44.785Z,4.97
2022-08-05T08:07:12.310Z,6.63
2022-08-05T08:09:38.943Z,6.20
2022-08-05T08:12:16.506Z,5.90
2022-08-05T08:14:52.530Z,4.20
2022-08-05T08:17:19.188Z,5.00
2022-08-05T08:20:22.390Z,5.00
2022-08-05T08:22:34.783Z,4.87
2022-08-05T08:25:03.400Z,5.47
2022-08-05T08:27:44.700Z,5.10
2022-08-05T08:30:29.744Z,5.23
2022-08-05T08:33:02.473Z,5.17
2022-08-05T08:35:35.062Z,5.03
2022-08-05T08:38:08.270Z,4.03
2022-08-05T08:40:39.166Z,4.87
2022-08-05T08:45:16.652Z,5.40
2022-08-05T08:45:53.982Z,5.70
2022-08-05T08:48:41.309Z,4.27
2022-08-05T08:52:02.218Z,5.00
2022-08-05T08:53:55.385Z,5.20
2022-08-05T08:56:23.511Z,5.53
2022-08-05T08:58:54.018Z,5.50
2022-08-05T09:01:21.179Z,4.80
2022-08-05T09:03:57.326Z,5.40
2022-08-05T09:06:30.781Z,4.80
2022-08-05T09:09:01.653Z,4.63
2022-08-05T09:11:51.980Z,5.17
2022-08-05T09:14:57.460Z,5.20
2022-08-05T09:17:08.134Z,5.30
2022-08-05T09:20:01.631Z,4.50
2022-08-05T09:22:31.130Z,4.80
2022-08-05T09:25:13.463Z,3.93
2022-08-05T09:28:05.252Z,4.23
2022-08-05T09:30:27.369Z,4.80
2022-08-05T09:33:01.778Z,5.07
2022-08-05T09:35:29.474Z,4.30
2022-08-05T09:38:17.572Z,5.60
2022-08-05T09:40:51.878Z,3.40
2022-08-05T09:43:41.692Z,4.77
2022-08-05T09:46:34.945Z,4.77
2022-08-05T09:49:19.116Z,5.57
2022-08-05T09:51:49.550Z,5.43
2022-08-05T09:54:28.781Z,5.30
2022-08-05T09:56:56.164Z,5.30
2022-08-05T09:59:27.646Z,4.60
2022-08-05T10:01:57.799Z,4.63
2022-08-05T10:04:35.593Z,4.17
2022-08-05T10:07:20.423Z,3.77
2022-08-05T10:10:14.182Z,5.50
2022-08-05T10:12:49.971Z,4.80
2022-08-05T10:15:21.641Z,4.60
2022-08-05T10:18:10.683Z,3.53
2022-08-05T10:20:48.543Z,5.30
2022-08-05T10:23:55.591Z,5.17
2022-08-05T10:26:15.207Z,4.50
2022-08-05T10:28:46.674Z,4.30
2022-08-05T10:32:46.755Z,3.83
2022-08-05T10:34:03.271Z,4.43
2022-08-05T10:36:30.697Z,3.60
2022-08-05T10:39:05.135Z,2.90
2022-08-05T10:41:47.365Z,2.70
2022-08-05T10:44:18.934Z,2.97
2022-08-05T10:46:54.349Z,2.53
2022-08-05T10:49:27.217Z,3.07
2022-08-05T10:52:03.332Z,2.43
2022-08-05T10:55:11.172Z,3.50
2022-08-05T10:57:44.692Z,2.27
2022-08-05T11:00:22.687Z,2.80
2022-08-05T11:03:25.950Z,2.73
2022-08-05T11:06:16.211Z,2.20
2022-08-05T11:09:32.072Z,2.93
2022-08-05T11:12:26.666Z,2.93
2022-08-05T11:15:19.300Z,2.77
2022-08-05T11:17:56.828Z,2.37
2022-08-05T11:20:39.251Z,2.87
2022-08-05T11:23:33.280Z,3.33
2022-08-05T11:26:28.189Z,3.73
2022-08-05T11:28:56.584Z,3.60
2022-08-05T11:31:57.908Z,3.20
2022-08-05T11:34:35.958Z,3.47
2022-08-05T11:37:02.698Z,3.30
2022-08-05T11:40:00.634Z,3.03
2022-08-05T11:42:37.799Z,3.93
2022-08-05T11:45:23.118Z,2.90
2022-08-05T11:47:55.140Z,4.60
2022-08-05T11:50:22.685Z,4.30
2022-08-05T11:52:52.055Z,3.07
2022-08-05T11:55:19.831Z,4.90
2022-08-05T11:58:09.742Z,4.60
2022-08-05T12:00:38.263Z,3.50
2022-08-05T12:03:16.728Z,2.90
2022-08-05T12:06:05.958Z,5.50
2022-08-05T12:08:50.935Z,2.90
2022-08-05T12:11:40.349Z,3.27
2022-08-05T12:14:10.356Z,2.80
2022-08-05T12:16:40.285Z,4.40
2022-08-05T12:20:27.462Z,4.63
2022-08-05T12:22:14.809Z,3.13
2022-08-05T12:24:49.539Z,3.90
2022-08-05T12:27:32.647Z,4.10
2022-08-05T12:30:03.401Z,3.77
2022-08-05T12:32:33.656Z,3.50
2022-08-05T12:35:00.809Z,3.53
2022-08-05T12:37:31.922Z,3.00
2022-08-05T12:40:03.189Z,4.50
2022-08-05T12:42:37.223Z,3.63
2022-08-05T12:45:09.622Z,3.00
2022-08-05T12:47:37.909Z,3.83
2022-08-05T12:50:17.400Z,4.90
2022-08-05T12:52:59.395Z,3.17
2022-08-05T12:55:32.826Z,3.83
2022-08-05T12:58:39.150Z,3.33
2022-08-05T13:02:01.801Z,3.17
2022-08-05T13:03:41.763Z,2.93
2022-08-05T13:06:14.273Z,3.30
2022-08-05T13:08:50.735Z,2.60
2022-08-05T13:12:01.018Z,2.77
2022-08-05T13:14:19.880Z,2.57
2022-08-05T13:16:48.874Z,2.57
2022-08-05T13:19:15.945Z,3.00
2022-08-05T13:21:47.985Z,3.10
2022-08-05T13:24:36.508Z,3.27
2022-08-05T13:27:11.127Z,3.83
2022-08-05T13:29:38.091Z,3.50
2022-08-05T13:32:05.635Z,2.50
2022-08-05T13:34:32.893Z,2.40
2022-08-05T13:37:00.478Z,2.23
2022-08-05T13:40:16.278Z,2.00
2022-08-05T13:42:15.268Z,1.80
2022-08-05T13:44:45.298Z,1.67
2022-08-05T13:47:34.876Z,1.97
2022-08-05T13:50:00.712Z,2.03
2022-08-05T13:52:31.736Z,2.13
2022-08-05T13:55:02.874Z,1.50
2022-08-05T13:57:50.735Z,1.80
2022-08-05T14:00:26.933Z,1.60
2022-08-05T14:02:55.845Z,1.40
2022-08-05T14:05:29.426Z,1.30
2022-08-05T14:08:11.129Z,1.23
2022-08-05T14:10:47.358Z,1.83
2022-08-05T14:13:15.562Z,1.27
2022-08-05T14:16:04.769Z,1.20
2022-08-05T14:18:28.925Z,1.43
2022-08-05T14:20:55.566Z,1.27
2022-08-05T14:23:25.748Z,1.00
2022-08-05T14:25:58.230Z,1.30
2022-08-05T14:28:28.607Z,1.00
2022-08-05T14:30:56.705Z,1.00
2022-08-05T14:33:24.046Z,1.20
2022-08-05T14:35:54.127Z,1.00
2022-08-05T14:38:31.833Z,0.90
2022-08-05T14:41:05.676Z,0.90
2022-08-05T14:43:59.127Z,0.97
2022-08-05T14:46:22.618Z,0.83
2022-08-05T14:48:56.187Z,0.90
2022-08-05T14:51:23.830Z,0.90
2022-08-05T14:54:06.908Z,0.97
2022-08-05T14:56:37.979Z,0.80
2022-08-05T14:59:14.165Z,0.60
2022-08-05T15:01:47.878Z,0.70
2022-08-05T15:04:20.774Z,0.80
2022-08-05T15:06:50.576Z,0.80
2022-08-05T15:09:52.656Z,0.90
2022-08-05T15:12:09.522Z,0.77
2022-08-05T15:14:48.472Z,0.80
2022-08-05T15:17:45.988Z,0.70
2022-08-05T15:20:18.919Z,0.90
2022-08-05T15:22:54.284Z,0.87
2022-08-05T15:25:23.537Z,0.70
2022-08-05T15:28:13.303Z,0.80
2022-08-05T15:30:42.183Z,0.93
2022-08-05T15:33:12.707Z,0.70
2022-08-05T15:35:59.304Z,0.70
2022-08-05T15:38:35.318Z,0.60
2022-08-05T15:41:23.188Z,0.80
2022-08-05T15:43:50.189Z,0.70
2022-08-05T15:46:18.836Z,0.97
2022-08-05T15:48:52.821Z,1.00
2022-08-05T15:52:09.823Z,0.70
2022-08-05T15:54:16.739Z,0.77
2022-08-05T15:56:43.670Z,0.70
2022-08-05T15:59:10.577Z,0.73
2022-08-05T16:01:52.982Z,0.70
2022-08-05T16:04:25.264Z,1.00
2022-08-05T16:06:53.846Z,0.80
2022-08-05T16:09:22.805Z,0.70
2022-08-05T16:11:52.785Z,0.70
2022-08-05T16:14:20.022Z,0.60
2022-08-05T16:16:47.205Z,0.63
2022-08-05T16:19:25.627Z,0.80
2022-08-05T16:22:03.198Z,0.83
2022-08-05T16:24:41.908Z,0.67
2022-08-05T16:27:17.483Z,0.70
2022-08-05T16:29:50.413Z,0.87
2022-08-05T16:32:28.577Z,0.90
2022-08-05T16:34:56.760Z,0.70
2022-08-05T16:38:16.768Z,0.80
2022-08-05T16:40:13.687Z,0.70
2022-08-05T16:42:53.456Z,1.10
2022-08-05T16:46:03.548Z,0.70
2022-08-05T16:48:06.932Z,0.70
2022-08-05T16:50:37.740Z,0.90
2022-08-05T16:53:12.503Z,0.67
2022-08-05T16:55:49.333Z,0.77
2022-08-05T16:58:19.636Z,0.80
2022-08-05T17:00:48.121Z,0.60
2022-08-05T17:55:10.259Z,0.90
2022-08-05T17:57:43.562Z,1.37
2022-08-05T18:00:17.374Z,0.90
2022-08-05T18:02:47.076Z,0.90
2022-08-05T18:05:16.926Z,0.90
2022-08-05T18:07:44.486Z,0.80
2022-08-05T18:10:20.425Z,1.00
2022-08-05T18:12:49.243Z,1.47
2022-08-05T18:15:16.139Z,0.90
2022-08-05T18:18:01.655Z,0.73
2022-08-05T18:20:31.611Z,0.63
2022-08-05T18:23:00.724Z,1.00
2022-08-05T18:25:38.735Z,0.87
2022-08-05T18:28:06.496Z,0.80
2022-08-05T18:30:34.166Z,0.80
2022-08-05T18:33:01.688Z,0.80
2022-08-05T18:35:59.770Z,0.70
2022-08-05T18:38:19.384Z,0.90
2022-08-05T18:41:53.250Z,0.70
2022-08-05T18:43:42.759Z,0.80
2022-08-05T18:46:15.914Z,0.80
2022-08-05T18:48:53.550Z,0.90
2022-08-05T18:52:05.610Z,0.70
2022-08-05T18:58:18.366Z,0.90
2022-08-05T19:00:53.741Z,0.90
2022-08-05T19:03:20.356Z,0.80
2022-08-05T19:06:18.701Z,1.07
2022-08-05T19:08:49.178Z,0.90
2022-08-05T19:11:15.833Z,0.80
2022-08-05T19:13:49.961Z,0.87
2022-08-05T19:16:35.319Z,0.80
2022-08-05T19:19:13.085Z,1.00
2022-08-05T19:21:39.701Z,0.93
2022-08-05T19:24:12.544Z,0.90
2022-08-05T19:26:54.221Z,0.90
2022-08-05T19:29:22.352Z,0.70
2022-08-05T19:31:51.190Z,1.03
2022-08-05T19:34:18.703Z,0.90
2022-08-05T19:36:45.539Z,0.83
2022-08-05T19:39:13.991Z,0.70
2022-08-05T19:42:06.614Z,0.80
2022-08-05T19:44:30.550Z,0.80
2022-08-05T19:46:57.159Z,1.00
2022-08-05T19:49:24.477Z,1.00
2022-08-05T19:52:05.155Z,1.17
2022-08-05T19:54:37.784Z,1.10
2022-08-05T19:57:09.626Z,1.17
2022-08-05T20:00:02.098Z,1.10
2022-08-05T20:02:30.189Z,1.03
2022-08-05T20:04:58.275Z,1.07
2022-08-05T20:07:47.933Z,1.07
2022-08-05T20:10:14.214Z,1.40
2022-08-05T20:12:47.777Z,1.27
2022-08-05T20:15:23.342Z,1.40
2022-08-05T20:18:04.210Z,1.10
2022-08-05T20:20:38.569Z,1.23
2022-08-05T20:23:05.358Z,1.27
2022-08-05T20:25:39.695Z,1.20
2022-08-05T20:28:08.099Z,1.23
2022-08-05T20:30:40.461Z,1.40
2022-08-05T20:33:08.616Z,1.23
2022-08-05T20:35:40.333Z,1.47
2022-08-05T20:38:11.873Z,1.40
2022-08-05T20:40:47.579Z,1.30
2022-08-05T20:43:17.461Z,1.30
2022-08-05T20:46:04.229Z,1.10
2022-08-05T20:48:30.797Z,1.30
2022-08-05T20:50:57.487Z,1.03
2022-08-05T20:53:40.784Z,1.30
2022-08-05T20:56:09.656Z,1.43
2022-08-05T20:58:36.859Z,1.37
2022-08-05T21:01:04.212Z,1.30
2022-08-05T21:03:34.644Z,1.40
2022-08-05T21:06:01.913Z,1.20
2022-08-05T21:08:42.106Z,1.40
2022-08-05T21:11:12.115Z,1.40
2022-08-05T21:13:47.540Z,2.00
2022-08-05T21:16:22.699Z,1.50
2022-08-05T21:18:55.829Z,1.77
2022-08-05T21:21:26.871Z,1.50
2022-08-05T21:24:07.168Z,1.60
2022-08-05T21:26:34.007Z,1.40
2022-08-05T21:29:03.742Z,1.50
2022-08-05T21:31:41.598Z,1.70
2022-08-05T21:34:08.601Z,2.40
2022-08-05T21:36:37.345Z,1.87
2022-08-05T21:39:04.123Z,1.73
2022-08-05T21:41:34.299Z,2.00
2022-08-05T21:44:04.169Z,1.53
2022-08-05T21:46:32.232Z,1.40
2022-08-05T21:49:02.395Z,1.70
2022-08-05T21:52:21.731Z,2.23
2022-08-05T21:54:30.800Z,1.97
2022-08-05T21:57:29.222Z,1.90
2022-08-05T22:00:02.950Z,1.47
2022-08-05T22:02:30.783Z,1.93
2022-08-05T22:04:58.282Z,1.90
2022-08-05T22:07:40.420Z,1.80
2022-08-05T22:10:13.617Z,1.80
2022-08-05T22:12:44.737Z,1.53
2022-08-05T22:16:00.639Z,1.40
2022-08-05T22:18:05.250Z,2.00
2022-08-05T22:20:32.021Z,1.63
2022-08-05T22:23:21.173Z,1.30
2022-08-05T22:26:09.684Z,1.50
2022-08-05T22:28:37.565Z,2.40
2022-08-05T22:31:06.040Z,1.70
2022-08-05T22:33:57.424Z,1.70
2022-08-05T22:36:24.095Z,1.70
2022-08-05T22:38:53.688Z,1.87
2022-08-05T22:41:26.262Z,1.50
2022-08-05T22:44:08.686Z,1.47
2022-08-05T22:46:40.096Z,1.40
2022-08-05T22:49:23.192Z,1.90
2022-08-05T22:52:05.049Z,1.83
2022-08-05T22:54:35.101Z,1.77
2022-08-05T22:57:02.806Z,1.80
2022-08-05T22:59:46.370Z,1.63
2022-08-05T23:02:29.701Z,1.30
2022-08-05T23:04:58.150Z,1.97
2022-08-05T23:07:29.168Z,1.80
2022-08-05T23:10:02.051Z,1.93
2022-08-05T23:12:32.674Z,1.80
2022-08-05T23:15:01.397Z,2.33
2022-08-05T23:17:34.637Z,1.90
2022-08-05T23:20:16.423Z,2.20
2022-08-05T23:22:43.530Z,1.73
2022-08-05T23:25:17.164Z,2.20
2022-08-05T23:28:00.508Z,2.10
2022-08-05T23:30:29.178Z,2.13
2022-08-05T23:32:58.771Z,1.90
2022-08-05T23:35:25.569Z,1.53
2022-08-05T23:38:00.862Z,1.80
2022-08-05T23:40:27.557Z,2.00
2022-08-05T23:42:54.188Z,2.30
2022-08-05T23:45:20.923Z,2.10
2022-08-05T23:47:52.027Z,1.80
2022-08-05T23:50:20.669Z,2.30
2022-08-05T23:52:49.951Z,1.90
2022-08-05T23:55:18.960Z,1.93
2022-08-05T23:57:48.882Z,2.30
